createdAt,value
2018-09-17T00:00:29.453Z,26.65
2018-09-17T00:01:10.311Z,26.58
2018-09-17T00:01:51.074Z,26.57
2018-09-17T00:02:31.848Z,26.54
2018-09-17T00:03:12.592Z,26.58
2018-09-17T00:03:53.387Z,26.63
2018-09-17T00:04:34.227Z,26.63
2018-09-17T00:05:14.960Z,26.55
2018-09-17T00:05:55.714Z,26.58
2018-09-17T00:06:36.487Z,26.57
2018-09-17T00:07:17.268Z,26.52
2018-09-17T00:07:58.017Z,26.6
2018-09-17T00:08:38.740Z,26.6
2018-09-17T00:09:19.491Z,26.55
2018-09-17T00:10:00.349Z,26.52
2018-09-17T00:10:41.167Z,26.58
2018-09-17T00:11:21.925Z,26.55
2018-09-17T00:12:02.685Z,26.58
2018-09-17T00:12:43.445Z,26.6
2018-09-17T00:13:24.271Z,26.66
2018-09-17T00:14:05.046Z,26.62
2018-09-17T00:14:45.786Z,26.6
2018-09-17T00:15:26.565Z,26.63
2018-09-17T00:16:07.411Z,26.6
2018-09-17T00:16:48.219Z,26.6
2018-09-17T00:17:29.054Z,26.6
2018-09-17T00:18:09.768Z,26.63
2018-09-17T00:18:50.499Z,26.57
2018-09-17T00:19:31.278Z,26.58
2018-09-17T00:20:12.083Z,26.57
2018-09-17T00:20:52.850Z,26.6
2018-09-17T00:21:33.582Z,26.54
2018-09-17T00:22:14.363Z,26.58
2018-09-17T00:22:55.202Z,26.57
2018-09-17T00:23:36.011Z,26.63
2018-09-17T00:24:16.777Z,26.57
2018-09-17T00:24:57.506Z,26.58
2018-09-17T00:25:38.355Z,26.62
2018-09-17T00:26:19.123Z,26.57
2018-09-17T00:26:59.843Z,26.6
2018-09-17T00:27:40.568Z,26.62
2018-09-17T00:28:21.322Z,26.58
2018-09-17T00:29:02.199Z,26.58
2018-09-17T00:29:42.925Z,26.57
2018-09-17T00:30:23.641Z,26.57
2018-09-17T00:31:04.454Z,26.54
2018-09-17T00:31:45.231Z,26.63
2018-09-17T00:32:26.049Z,26.57
2018-09-17T00:33:06.798Z,26.57
2018-09-17T00:33:47.551Z,26.55
2018-09-17T00:34:28.300Z,26.57
2018-09-17T00:35:09.072Z,26.58
2018-09-17T00:35:49.910Z,26.63
2018-09-17T00:36:30.682Z,26.6
2018-09-17T00:37:11.480Z,26.62
2018-09-17T00:37:52.294Z,26.62
2018-09-17T00:38:33.089Z,26.55
2018-09-17T00:39:13.904Z,26.62
2018-09-17T00:39:54.656Z,26.58
2018-09-17T00:40:35.356Z,26.6
2018-09-17T00:41:16.119Z,26.6
2018-09-17T00:41:56.913Z,26.57
2018-09-17T00:42:37.693Z,26.6
2018-09-17T00:43:18.423Z,26.6
2018-09-17T00:43:59.258Z,26.58
2018-09-17T00:44:40.065Z,26.6
2018-09-17T00:45:20.867Z,26.58
2018-09-17T00:46:01.609Z,26.55
2018-09-17T00:46:42.334Z,26.55
2018-09-17T00:47:23.155Z,26.62
2018-09-17T00:48:03.920Z,26.58
2018-09-17T00:48:44.611Z,26.62
2018-09-17T00:49:25.406Z,26.58
2018-09-17T00:50:06.107Z,26.58
2018-09-17T00:50:46.945Z,26.58
2018-09-17T00:51:27.723Z,26.57
2018-09-17T00:52:08.576Z,26.55
2018-09-17T00:52:49.353Z,26.58
2018-09-17T00:53:30.070Z,26.6
2018-09-17T00:54:10.791Z,26.51
2018-09-17T00:54:51.572Z,26.6
2018-09-17T00:55:32.395Z,26.63
2018-09-17T00:56:13.144Z,26.57
2018-09-17T00:56:53.939Z,26.51
2018-09-17T00:57:34.762Z,26.57
2018-09-17T00:58:15.583Z,26.57
2018-09-17T00:58:56.358Z,26.63
2018-09-17T00:59:37.142Z,26.58
2018-09-17T01:00:17.873Z,26.62
2018-09-17T01:00:58.628Z,26.6
2018-09-17T01:01:39.469Z,26.6
2018-09-17T01:02:20.259Z,26.62
2018-09-17T01:03:01.068Z,26.62
2018-09-17T01:03:41.780Z,26.54
2018-09-17T01:04:22.519Z,26.62
2018-09-17T01:05:03.309Z,26.54
2018-09-17T01:05:44.026Z,26.62
2018-09-17T01:06:24.731Z,26.51
2018-09-17T01:07:05.469Z,26.52
2018-09-17T01:07:46.234Z,26.55
2018-09-17T01:08:27.085Z,26.51
2018-09-17T01:09:07.916Z,26.51
2018-09-17T01:09:48.668Z,26.58
2018-09-17T01:10:29.401Z,26.6
2018-09-17T01:11:10.104Z,26.55
2018-09-17T01:11:50.869Z,26.55
2018-09-17T01:12:31.716Z,26.52
2018-09-17T01:13:12.428Z,26.51
2018-09-17T01:13:53.136Z,26.51
2018-09-17T01:14:33.996Z,26.55
2018-09-17T01:15:14.770Z,26.55
2018-09-17T01:15:55.618Z,26.54
2018-09-17T01:16:36.325Z,26.54
2018-09-17T01:17:17.055Z,26.52
2018-09-17T01:17:57.915Z,26.5
2018-09-17T01:18:38.624Z,26.54
2018-09-17T01:19:19.354Z,26.55
2018-09-17T01:20:00.127Z,26.51
2018-09-17T01:20:40.814Z,26.51
2018-09-17T01:21:21.665Z,26.52
2018-09-17T01:22:02.415Z,26.51
2018-09-17T01:22:43.148Z,26.51
2018-09-17T01:23:23.956Z,26.54
2018-09-17T01:24:04.688Z,26.54
2018-09-17T01:24:45.530Z,26.51
2018-09-17T01:25:26.241Z,26.5
2018-09-17T01:26:06.955Z,26.55
2018-09-17T01:26:47.775Z,26.51
2018-09-17T01:27:28.527Z,26.54
2018-09-17T01:28:09.394Z,26.58
2018-09-17T01:28:50.264Z,26.57
2018-09-17T01:29:31.014Z,26.63
2018-09-17T01:30:11.716Z,26.58
2018-09-17T01:30:52.503Z,26.5
2018-09-17T01:31:33.305Z,26.5
2018-09-17T01:32:13.998Z,26.52
2018-09-17T01:32:54.720Z,26.51
2018-09-17T01:33:35.469Z,26.48
2018-09-17T01:34:16.274Z,26.58
2018-09-17T01:34:57.084Z,26.54
2018-09-17T01:35:37.851Z,26.58
2018-09-17T01:36:18.506Z,26.52
2018-09-17T01:36:59.220Z,26.51
2018-09-17T01:37:39.968Z,26.52
2018-09-17T01:38:20.800Z,26.52
2018-09-17T01:39:01.640Z,26.54
2018-09-17T01:39:42.380Z,26.48
2018-09-17T01:40:23.168Z,26.54
2018-09-17T01:41:03.912Z,26.54
2018-09-17T01:41:44.717Z,26.55
2018-09-17T01:42:25.492Z,26.54
2018-09-17T01:43:06.201Z,26.54
2018-09-17T01:43:46.929Z,26.52
2018-09-17T01:44:27.726Z,26.55
2018-09-17T01:45:08.512Z,26.6
2018-09-17T01:45:49.342Z,26.57
2018-09-17T01:46:30.116Z,26.57
2018-09-17T01:47:10.841Z,26.55
2018-09-17T01:47:51.635Z,26.51
2018-09-17T01:48:32.407Z,26.54
2018-09-17T01:49:13.129Z,26.57
2018-09-17T01:49:53.848Z,26.55
2018-09-17T01:50:34.589Z,26.51
2018-09-17T01:51:15.353Z,26.57
2018-09-17T01:51:56.160Z,26.58
2018-09-17T01:52:36.853Z,26.48
2018-09-17T01:53:17.673Z,26.58
2018-09-17T01:53:58.436Z,26.51
2018-09-17T01:54:39.293Z,26.55
2018-09-17T01:55:20.042Z,26.5
2018-09-17T01:56:00.773Z,26.5
2018-09-17T01:56:41.572Z,26.51
2018-09-17T01:57:22.338Z,26.55
2018-09-17T01:58:03.133Z,26.51
2018-09-17T01:58:43.900Z,26.57
2018-09-17T01:59:24.633Z,26.54
2018-09-17T02:00:05.486Z,26.54
2018-09-17T02:00:46.303Z,26.54
2018-09-17T02:01:27.097Z,26.54
2018-09-17T02:02:07.818Z,26.48
2018-09-17T02:02:48.613Z,26.55
2018-09-17T02:03:29.332Z,26.48
2018-09-17T02:04:10.146Z,26.48
2018-09-17T02:04:50.877Z,26.45
2018-09-17T02:05:31.625Z,26.51
2018-09-17T02:06:12.424Z,26.55
2018-09-17T02:06:53.201Z,26.51
2018-09-17T02:07:34.018Z,26.47
2018-09-17T02:08:14.755Z,26.43
2018-09-17T02:08:55.513Z,26.48
2018-09-17T02:09:36.233Z,26.47
2018-09-17T02:10:16.939Z,26.47
2018-09-17T02:10:57.787Z,26.47
2018-09-17T02:11:38.620Z,26.47
2018-09-17T02:12:19.411Z,26.5
2018-09-17T02:13:00.147Z,26.37
2018-09-17T02:13:40.911Z,26.37
2018-09-17T02:14:21.738Z,26.37
2018-09-17T02:15:02.467Z,26.48
2018-09-17T02:15:43.196Z,26.47
2018-09-17T02:16:23.938Z,26.5
2018-09-17T02:17:04.771Z,26.4
2018-09-17T02:17:45.533Z,26.45
2018-09-17T02:18:26.367Z,26.5
2018-09-17T02:19:07.138Z,26.36
2018-09-17T02:19:47.880Z,26.45
2018-09-17T02:20:28.593Z,26.39
2018-09-17T02:21:09.314Z,26.37
2018-09-17T02:21:50.163Z,26.4
2018-09-17T02:22:30.972Z,26.37
2018-09-17T02:23:11.782Z,26.47
2018-09-17T02:23:52.573Z,26.52
2018-09-17T02:24:33.408Z,26.45
2018-09-17T02:25:14.202Z,26.45
2018-09-17T02:25:55.043Z,26.48
2018-09-17T02:26:35.756Z,26.45
2018-09-17T02:27:16.579Z,26.43
2018-09-17T02:27:57.337Z,26.51
2018-09-17T02:28:38.088Z,26.48
2018-09-17T02:29:18.838Z,26.37
2018-09-17T02:29:59.593Z,26.44
2018-09-17T02:30:40.404Z,26.39
2018-09-17T02:31:21.198Z,26.37
2018-09-17T02:32:01.936Z,26.43
2018-09-17T02:32:42.763Z,26.39
2018-09-17T02:33:23.635Z,26.39
2018-09-17T02:34:04.402Z,26.45
2018-09-17T02:34:45.172Z,26.51
2018-09-17T02:35:25.885Z,26.5
2018-09-17T02:36:06.606Z,26.36
2018-09-17T02:36:47.509Z,26.57
2018-09-17T02:37:28.312Z,26.36
2018-09-17T02:38:09.125Z,26.48
2018-09-17T02:38:49.881Z,26.4
2018-09-17T02:39:30.665Z,26.37
2018-09-17T02:40:11.475Z,26.47
2018-09-17T02:40:52.216Z,26.43
2018-09-17T02:41:32.927Z,26.44
2018-09-17T02:42:13.691Z,26.44
2018-09-17T02:42:54.425Z,26.44
2018-09-17T02:43:35.263Z,26.4
2018-09-17T02:44:16.037Z,26.44
2018-09-17T02:44:56.803Z,26.4
2018-09-17T02:45:37.632Z,26.33
2018-09-17T02:46:18.383Z,26.44
2018-09-17T02:46:59.191Z,26.33
2018-09-17T02:47:39.959Z,26.35
2018-09-17T02:48:20.681Z,26.43
2018-09-17T02:49:01.523Z,26.37
2018-09-17T02:49:42.253Z,26.45
2018-09-17T02:50:23.024Z,26.44
2018-09-17T02:51:03.749Z,26.37
2018-09-17T02:51:44.527Z,26.39
2018-09-17T02:52:25.330Z,26.32
2018-09-17T02:53:06.184Z,26.39
2018-09-17T02:53:47.021Z,26.35
2018-09-17T02:54:27.829Z,26.48
2018-09-17T02:55:08.568Z,26.47
2018-09-17T02:55:49.302Z,26.37
2018-09-17T02:56:30.121Z,26.45
2018-09-17T02:57:10.836Z,26.48
2018-09-17T02:57:51.598Z,26.4
2018-09-17T02:58:32.402Z,26.33
2018-09-17T02:59:13.194Z,26.36
2018-09-17T02:59:54.009Z,26.44
2018-09-17T03:00:34.759Z,26.36
2018-09-17T03:01:15.536Z,26.43
2018-09-17T03:01:56.369Z,26.48
2018-09-17T03:02:37.148Z,26.47
2018-09-17T03:03:17.911Z,26.4
2018-09-17T03:03:58.692Z,26.35
2018-09-17T03:04:39.417Z,26.39
2018-09-17T03:05:20.222Z,26.35
2018-09-17T03:06:00.998Z,26.39
2018-09-17T03:06:41.737Z,26.4
2018-09-17T03:07:22.609Z,26.35
2018-09-17T03:08:03.456Z,26.35
2018-09-17T03:08:44.250Z,26.39
2018-09-17T03:09:25.053Z,26.44
2018-09-17T03:10:05.832Z,26.45
2018-09-17T03:10:46.575Z,26.45
2018-09-17T03:11:27.321Z,26.45
2018-09-17T03:12:08.157Z,26.35
2018-09-17T03:12:49.046Z,26.4
2018-09-17T03:13:29.836Z,26.47
2018-09-17T03:14:10.580Z,26.47
2018-09-17T03:14:51.427Z,26.35
2018-09-17T03:15:32.225Z,26.35
2018-09-17T03:16:12.931Z,26.43
2018-09-17T03:16:53.638Z,26.37
2018-09-17T03:17:34.404Z,26.32
2018-09-17T03:18:15.262Z,26.47
2018-09-17T03:18:56.060Z,26.48
2018-09-17T03:19:36.940Z,26.44
2018-09-17T03:20:17.674Z,26.44
2018-09-17T03:20:58.456Z,26.35
2018-09-17T03:21:39.219Z,26.39
2018-09-17T03:22:19.967Z,26.32
2018-09-17T03:23:00.819Z,26.4
2018-09-17T03:23:41.558Z,26.43
2018-09-17T03:24:22.365Z,26.45
2018-09-17T03:25:03.102Z,26.4
2018-09-17T03:25:43.927Z,26.32
2018-09-17T03:26:24.723Z,26.45
2018-09-17T03:27:05.424Z,26.36
2018-09-17T03:27:46.151Z,26.37
2018-09-17T03:28:26.923Z,26.35
2018-09-17T03:29:07.765Z,26.32
2018-09-17T03:29:48.506Z,26.36
2018-09-17T03:30:29.416Z,26.35
2018-09-17T03:31:10.154Z,26.33
2018-09-17T03:31:50.908Z,26.44
2018-09-17T03:32:31.765Z,26.35
2018-09-17T03:33:12.521Z,26.44
2018-09-17T03:33:53.277Z,26.44
2018-09-17T03:34:33.977Z,26.44
2018-09-17T03:35:14.747Z,26.47
2018-09-17T03:35:55.571Z,26.43
2018-09-17T03:36:36.405Z,26.39
2018-09-17T03:37:17.173Z,26.44
2018-09-17T03:37:58.032Z,26.45
2018-09-17T03:38:38.842Z,26.39
2018-09-17T03:39:19.688Z,26.43
2018-09-17T03:40:00.453Z,26.35
2018-09-17T03:40:41.194Z,26.45
2018-09-17T03:41:22.012Z,26.39
2018-09-17T03:42:02.811Z,26.44
2018-09-17T03:42:43.577Z,26.32
2018-09-17T03:43:24.310Z,26.39
2018-09-17T03:44:05.114Z,26.36
2018-09-17T03:44:45.983Z,26.37
2018-09-17T03:45:26.844Z,26.44
2018-09-17T03:46:07.648Z,26.47
2018-09-17T03:46:48.351Z,26.32
2018-09-17T03:47:29.038Z,26.35
2018-09-17T03:48:09.747Z,26.3
2018-09-17T03:48:50.591Z,26.33
2018-09-17T03:49:31.346Z,26.37
2018-09-17T03:50:12.080Z,26.37
2018-09-17T03:50:52.884Z,26.36
2018-09-17T03:51:33.665Z,26.4
2018-09-17T03:52:14.508Z,26.32
2018-09-17T03:52:55.293Z,26.33
2018-09-17T03:53:36.039Z,26.44
2018-09-17T03:54:16.755Z,26.36
2018-09-17T03:54:57.548Z,26.33
2018-09-17T03:55:38.392Z,26.37
2018-09-17T03:56:19.170Z,26.45
2018-09-17T03:56:59.978Z,26.36
2018-09-17T03:57:40.724Z,26.37
2018-09-17T03:58:21.522Z,26.4
2018-09-17T03:59:02.409Z,26.32
2018-09-17T03:59:43.135Z,26.45
2018-09-17T04:00:23.857Z,26.39
2018-09-17T04:01:04.588Z,26.37
2018-09-17T04:01:45.385Z,26.44
2018-09-17T04:02:26.216Z,26.37
2018-09-17T04:03:07.048Z,26.4
2018-09-17T04:03:47.824Z,26.43
2018-09-17T04:04:28.590Z,26.44
2018-09-17T04:05:09.319Z,26.47
2018-09-17T04:05:50.062Z,26.44
2018-09-17T04:06:30.908Z,26.44
2018-09-17T04:07:11.648Z,26.4
2018-09-17T04:07:52.482Z,26.37
2018-09-17T04:08:33.347Z,26.43
2018-09-17T04:09:14.092Z,26.36
2018-09-17T04:09:54.926Z,26.44
2018-09-17T04:10:35.667Z,26.35
2018-09-17T04:11:16.425Z,26.4
2018-09-17T04:11:57.280Z,26.37
2018-09-17T04:12:38.004Z,26.32
2018-09-17T04:13:18.742Z,26.33
2018-09-17T04:13:59.463Z,26.35
2018-09-17T04:14:40.266Z,26.4
2018-09-17T04:15:21.077Z,26.37
2018-09-17T04:16:01.824Z,26.37
2018-09-17T04:16:42.585Z,26.32
2018-09-17T04:17:23.373Z,26.44
2018-09-17T04:18:04.237Z,26.43
2018-09-17T04:18:45.041Z,26.45
2018-09-17T04:19:25.770Z,26.36
2018-09-17T04:20:06.454Z,26.37
2018-09-17T04:20:47.225Z,26.47
2018-09-17T04:21:28.011Z,26.44
2018-09-17T04:22:08.831Z,26.4
2018-09-17T04:22:49.634Z,26.39
2018-09-17T04:23:30.352Z,26.43
2018-09-17T04:24:11.120Z,26.44
2018-09-17T04:24:51.950Z,26.35
2018-09-17T04:25:32.678Z,26.37
2018-09-17T04:26:13.432Z,26.39
2018-09-17T04:26:54.182Z,26.39
2018-09-17T04:27:34.918Z,26.39
2018-09-17T04:28:15.733Z,26.43
2018-09-17T04:28:56.504Z,26.37
2018-09-17T04:29:37.312Z,26.44
2018-09-17T04:30:18.013Z,26.43
2018-09-17T04:30:58.739Z,26.33
2018-09-17T04:31:39.485Z,26.33
2018-09-17T04:32:20.298Z,26.43
2018-09-17T04:33:01.163Z,26.47
2018-09-17T04:33:41.837Z,26.43
2018-09-17T04:34:22.618Z,26.37
2018-09-17T04:35:03.443Z,26.37
2018-09-17T04:35:44.253Z,26.4
2018-09-17T04:36:24.989Z,26.35
2018-09-17T04:37:05.722Z,26.39
2018-09-17T04:37:46.441Z,26.4
2018-09-17T04:38:27.187Z,26.37
2018-09-17T04:39:08.002Z,26.36
2018-09-17T04:39:48.858Z,26.3
2018-09-17T04:40:29.624Z,26.36
2018-09-17T04:41:10.345Z,26.32
2018-09-17T04:41:51.126Z,26.35
2018-09-17T04:42:31.975Z,26.3
2018-09-17T04:43:12.730Z,26.35
2018-09-17T04:43:53.456Z,26.36
2018-09-17T04:44:34.196Z,26.39
2018-09-17T04:45:15.007Z,26.37
2018-09-17T04:45:55.797Z,26.3
2018-09-17T04:46:36.540Z,26.35
2018-09-17T04:47:17.340Z,26.29
2018-09-17T04:47:58.158Z,26.36
2018-09-17T04:48:38.946Z,26.43
2018-09-17T04:49:19.703Z,26.43
2018-09-17T04:50:00.441Z,26.29
2018-09-17T04:50:41.224Z,26.39
2018-09-17T04:51:22.036Z,26.4
2018-09-17T04:52:02.785Z,26.36
2018-09-17T04:52:43.508Z,26.37
2018-09-17T04:53:24.231Z,26.36
2018-09-17T04:54:05.027Z,26.36
2018-09-17T04:54:45.864Z,26.4
2018-09-17T04:55:26.707Z,26.39
2018-09-17T04:56:07.458Z,26.32
2018-09-17T04:56:48.182Z,26.35
2018-09-17T04:57:29.003Z,26.4
2018-09-17T04:58:09.734Z,26.33
2018-09-17T04:58:50.518Z,26.32
2018-09-17T04:59:31.243Z,26.35
2018-09-17T05:00:12.057Z,26.37
2018-09-17T05:00:52.865Z,26.32
2018-09-17T05:01:33.672Z,26.37
2018-09-17T05:02:14.503Z,26.44
2018-09-17T05:02:55.347Z,26.45
2018-09-17T05:03:36.155Z,26.35
2018-09-17T05:04:17.000Z,26.39
2018-09-17T05:04:57.781Z,26.39
2018-09-17T05:05:38.567Z,26.32
2018-09-17T05:06:19.322Z,26.32
2018-09-17T05:07:00.180Z,26.44
2018-09-17T05:07:41.008Z,26.51
2018-09-17T05:08:21.766Z,26.48
2018-09-17T05:09:02.564Z,26.51
2018-09-17T05:09:43.416Z,26.45
2018-09-17T05:10:24.193Z,26.39
2018-09-17T05:11:05.021Z,26.5
2018-09-17T05:11:45.782Z,26.37
2018-09-17T05:12:26.599Z,26.48
2018-09-17T05:13:07.463Z,26.47
2018-09-17T05:13:48.148Z,26.48
2018-09-17T05:14:28.946Z,26.44
2018-09-17T05:15:09.777Z,26.52
2018-09-17T05:15:50.518Z,26.51
2018-09-17T05:16:31.345Z,26.48
2018-09-17T05:17:12.195Z,26.5
2018-09-17T05:17:52.940Z,26.52
2018-09-17T05:18:33.675Z,26.47
2018-09-17T05:19:14.409Z,26.5
2018-09-17T05:19:55.173Z,26.5
2018-09-17T05:20:36.141Z,26.47
2018-09-17T05:21:16.785Z,26.4
2018-09-17T05:21:57.554Z,26.48
2018-09-17T05:22:38.391Z,26.47
2018-09-17T05:23:19.248Z,26.43
2018-09-17T05:24:00.047Z,26.43
2018-09-17T05:24:40.783Z,26.44
2018-09-17T05:25:21.542Z,26.52
2018-09-17T05:26:02.409Z,26.47
2018-09-17T05:26:43.159Z,26.44
2018-09-17T05:27:23.862Z,26.48
2018-09-17T05:28:04.638Z,26.51
2018-09-17T05:28:45.428Z,26.48
2018-09-17T05:29:26.269Z,26.48
2018-09-17T05:30:07.064Z,26.51
2018-09-17T05:30:47.910Z,26.43
2018-09-17T05:31:28.628Z,26.47
2018-09-17T05:32:09.324Z,26.44
2018-09-17T05:32:50.093Z,26.44
2018-09-17T05:33:30.906Z,26.44
2018-09-17T05:34:11.627Z,26.47
2018-09-17T05:34:52.395Z,26.48
2018-09-17T05:35:33.237Z,26.36
2018-09-17T05:36:14.012Z,26.47
2018-09-17T05:36:54.847Z,26.48
2018-09-17T05:37:35.550Z,26.43
2018-09-17T05:38:16.329Z,26.32
2018-09-17T05:38:57.031Z,26.45
2018-09-17T05:39:37.840Z,26.36
2018-09-17T05:40:18.658Z,26.39
2018-09-17T05:40:59.428Z,26.32
2018-09-17T05:41:40.237Z,26.47
2018-09-17T05:42:20.954Z,26.47
2018-09-17T05:43:01.762Z,26.43
2018-09-17T05:43:42.599Z,26.37
2018-09-17T05:44:23.381Z,26.44
2018-09-17T05:45:04.093Z,26.4
2018-09-17T05:45:44.932Z,26.44
2018-09-17T05:46:25.719Z,26.5
2018-09-17T05:47:06.534Z,26.48
2018-09-17T05:47:47.393Z,26.37
2018-09-17T05:48:28.126Z,26.47
2018-09-17T05:49:08.862Z,26.51
2018-09-17T05:49:49.652Z,26.44
2018-09-17T05:50:30.493Z,26.51
2018-09-17T05:51:11.352Z,26.45
2018-09-17T05:51:52.103Z,26.48
2018-09-17T05:52:32.862Z,26.51
2018-09-17T05:53:13.716Z,26.43
2018-09-17T05:53:54.641Z,26.44
2018-09-17T05:54:35.342Z,26.45
2018-09-17T05:55:16.109Z,26.48
2018-09-17T05:55:56.906Z,26.47
2018-09-17T05:56:37.678Z,26.48
2018-09-17T05:57:18.411Z,26.51
2018-09-17T05:57:59.105Z,26.52
2018-09-17T05:58:39.838Z,26.5
2018-09-17T05:59:20.685Z,26.52
2018-09-17T06:00:01.483Z,26.45
2018-09-17T06:00:42.198Z,26.5
2018-09-17T06:01:22.974Z,26.5
2018-09-17T06:02:03.783Z,26.45
2018-09-17T06:02:44.591Z,26.5
2018-09-17T06:03:25.405Z,26.52
2018-09-17T06:04:06.112Z,26.55
2018-09-17T06:04:46.857Z,26.55
2018-09-17T06:05:27.628Z,26.55
2018-09-17T06:06:08.463Z,26.55
2018-09-17T06:06:49.241Z,26.52
2018-09-17T06:07:30.066Z,26.51
2018-09-17T06:08:10.815Z,26.52
2018-09-17T06:08:51.605Z,26.52
2018-09-17T06:09:32.472Z,26.57
2018-09-17T06:10:13.196Z,26.48
2018-09-17T06:10:53.916Z,26.51
2018-09-17T06:11:34.648Z,26.5
2018-09-17T06:12:15.394Z,26.51
2018-09-17T06:12:56.203Z,26.58
2018-09-17T06:13:37.038Z,26.57
2018-09-17T06:14:17.785Z,26.6
2018-09-17T06:14:58.525Z,26.58
2018-09-17T06:15:39.285Z,26.62
2018-09-17T06:16:20.066Z,26.57
2018-09-17T06:17:00.884Z,26.58
2018-09-17T06:17:41.606Z,26.63
2018-09-17T06:18:22.372Z,26.62
2018-09-17T06:19:03.206Z,26.62
2018-09-17T06:19:44.013Z,26.58
2018-09-17T06:20:24.791Z,26.6
2018-09-17T06:21:05.532Z,26.6
2018-09-17T06:21:46.249Z,26.6
2018-09-17T06:22:26.972Z,26.69
2018-09-17T06:23:07.747Z,26.58
2018-09-17T06:23:48.584Z,26.7
2018-09-17T06:24:29.456Z,26.6
2018-09-17T06:25:10.293Z,26.72
2018-09-17T06:25:51.022Z,26.7
2018-09-17T06:26:31.873Z,26.69
2018-09-17T06:27:12.549Z,26.72
2018-09-17T06:27:53.356Z,26.73
2018-09-17T06:28:34.151Z,26.66
2018-09-17T06:29:14.861Z,26.81
2018-09-17T06:29:55.679Z,26.77
2018-09-17T06:30:36.419Z,26.8
2018-09-17T06:31:17.192Z,26.81
2018-09-17T06:31:57.987Z,26.82
2018-09-17T06:32:38.801Z,26.84
2018-09-17T06:33:19.656Z,26.82
2018-09-17T06:34:00.435Z,26.84
2018-09-17T06:34:41.182Z,26.8
2018-09-17T06:35:22.009Z,26.85
2018-09-17T06:36:02.800Z,26.87
2018-09-17T06:36:43.515Z,26.91
2018-09-17T06:37:24.242Z,27.02
2018-09-17T06:38:05.070Z,26.99
2018-09-17T06:38:45.867Z,27.03
2018-09-17T06:39:26.678Z,27.1
2018-09-17T06:40:07.497Z,27.07
2018-09-17T06:40:48.236Z,27.12
2018-09-17T06:41:29.054Z,27.54
2018-09-17T06:42:09.838Z,28.07
2018-09-17T06:42:50.644Z,28.52
2018-09-17T06:43:31.417Z,28.92
2018-09-17T06:44:12.175Z,29.26
2018-09-17T06:44:52.937Z,29.48
2018-09-17T06:45:33.761Z,29.39
2018-09-17T06:46:14.636Z,29.19
2018-09-17T06:46:55.374Z,28.66
2018-09-17T06:47:36.153Z,28.39
2018-09-17T06:48:16.882Z,28.25
2018-09-17T06:48:57.703Z,28.15
2018-09-17T06:49:38.554Z,28.14
2018-09-17T06:50:19.327Z,27.99
2018-09-17T06:51:00.154Z,27.85
2018-09-17T06:51:40.881Z,27.97
2018-09-17T06:52:21.642Z,28.4
2018-09-17T06:53:02.478Z,28.71
2018-09-17T06:53:43.256Z,28.74
2018-09-17T06:54:24.000Z,28.77
2018-09-17T06:55:04.741Z,28.74
2018-09-17T06:55:45.596Z,28.71
2018-09-17T06:56:26.412Z,28.71
2018-09-17T06:57:07.278Z,28.55
2018-09-17T06:57:47.995Z,28.44
2018-09-17T06:58:28.733Z,28.39
2018-09-17T06:59:09.443Z,28.39
2018-09-17T06:59:50.236Z,28.51
2018-09-17T07:00:31.056Z,28.48
2018-09-17T07:01:11.778Z,28.41
2018-09-17T07:01:52.546Z,28.39
2018-09-17T07:02:33.410Z,28.52
2018-09-17T07:03:14.191Z,28.54
2018-09-17T07:03:55.007Z,28.46
2018-09-17T07:04:35.754Z,28.44
2018-09-17T07:05:16.576Z,28.4
2018-09-17T07:05:57.388Z,28.44
2018-09-17T07:06:38.176Z,28.43
2018-09-17T07:07:18.922Z,28.44
2018-09-17T07:07:59.705Z,28.36
2018-09-17T07:08:40.514Z,28.36
2018-09-17T07:09:21.354Z,28.37
2018-09-17T07:10:02.132Z,28.34
2018-09-17T07:10:42.900Z,28.34
2018-09-17T07:11:23.682Z,28.36
2018-09-17T07:12:04.452Z,28.43
2018-09-17T07:12:45.307Z,28.36
2018-09-17T07:13:26.016Z,28.4
2018-09-17T07:14:06.708Z,28.37
2018-09-17T07:14:47.442Z,28.41
2018-09-17T07:15:28.384Z,28.4
2018-09-17T07:16:09.210Z,28.36
2018-09-17T07:16:50.034Z,28.36
2018-09-17T07:17:30.810Z,28.31
2018-09-17T07:18:11.602Z,28.33
2018-09-17T07:18:52.411Z,28.36
2018-09-17T07:19:33.218Z,28.3
2018-09-17T07:20:13.953Z,28.3
2018-09-17T07:20:54.711Z,28.24
2018-09-17T07:21:35.492Z,28.22
2018-09-17T07:22:16.362Z,28.04
2018-09-17T07:22:57.147Z,28.02
2018-09-17T07:23:37.931Z,28.03
2018-09-17T07:24:18.718Z,28.02
2018-09-17T07:24:59.541Z,28.02
2018-09-17T07:25:40.392Z,27.97
2018-09-17T07:26:21.150Z,28.12
2018-09-17T07:27:01.908Z,28.11
2018-09-17T07:27:42.698Z,27.99
2018-09-17T07:28:23.494Z,27.93
2018-09-17T07:29:04.291Z,27.93
2018-09-17T07:29:45.083Z,28.03
2018-09-17T07:30:25.939Z,27.96
2018-09-17T07:31:06.829Z,27.92
2018-09-17T07:31:47.595Z,27.93
2018-09-17T07:32:28.418Z,27.93
2018-09-17T07:33:09.164Z,27.9
2018-09-17T07:33:49.905Z,27.75
2018-09-17T07:34:30.673Z,27.81
2018-09-17T07:35:11.438Z,27.85
2018-09-17T07:35:52.212Z,27.96
2018-09-17T07:36:33.046Z,27.87
2018-09-17T07:37:13.750Z,27.84
2018-09-17T07:37:54.604Z,27.84
2018-09-17T07:38:35.418Z,27.78
2018-09-17T07:39:16.186Z,27.78
2018-09-17T07:39:56.896Z,27.74
2018-09-17T07:40:37.692Z,27.85
2018-09-17T07:41:18.501Z,27.77
2018-09-17T07:41:59.285Z,27.7
2018-09-17T07:42:40.042Z,27.63
2018-09-17T07:43:20.792Z,27.69
2018-09-17T07:44:01.624Z,27.65
2018-09-17T07:44:42.346Z,27.7
2018-09-17T07:45:23.061Z,27.62
2018-09-17T07:46:03.833Z,27.78
2018-09-17T07:46:44.703Z,27.77
2018-09-17T07:47:25.558Z,27.72
2018-09-17T07:48:06.231Z,27.77
2018-09-17T07:48:46.981Z,27.75
2018-09-17T07:49:27.697Z,27.74
2018-09-17T07:50:08.508Z,27.77
2018-09-17T07:50:49.347Z,27.82
2018-09-17T07:51:30.141Z,27.79
2018-09-17T07:52:10.974Z,27.74
2018-09-17T07:52:51.750Z,27.67
2018-09-17T07:53:32.519Z,27.75
2018-09-17T07:54:13.345Z,27.74
2018-09-17T07:54:54.079Z,27.75
2018-09-17T07:55:34.797Z,27.65
2018-09-17T07:56:15.560Z,27.49
2018-09-17T07:56:56.398Z,27.54
2018-09-17T07:57:37.244Z,27.54
2018-09-17T07:58:18.068Z,27.59
2018-09-17T07:58:58.929Z,27.66
2018-09-17T07:59:39.624Z,27.67
2018-09-17T08:00:20.363Z,27.75
2018-09-17T08:01:01.141Z,27.72
2018-09-17T08:01:41.961Z,27.74
2018-09-17T08:02:22.747Z,27.67
2018-09-17T08:03:03.567Z,27.69
2018-09-17T08:03:44.342Z,27.66
2018-09-17T08:04:25.088Z,27.62
2018-09-17T08:05:05.909Z,27.62
2018-09-17T08:05:46.796Z,27.59
2018-09-17T08:06:27.499Z,27.67
2018-09-17T08:07:08.230Z,27.51
2018-09-17T08:07:49.048Z,27.54
2018-09-17T08:08:29.874Z,27.63
2018-09-17T08:09:10.712Z,27.57
2018-09-17T08:09:51.532Z,27.65
2018-09-17T08:10:32.275Z,27.57
2018-09-17T08:11:13.081Z,27.57
2018-09-17T08:11:53.860Z,27.69
2018-09-17T08:12:34.605Z,27.59
2018-09-17T08:13:15.420Z,27.6
2018-09-17T08:13:56.197Z,27.54
2018-09-17T08:14:37.046Z,27.6
2018-09-17T08:15:17.733Z,27.5
2018-09-17T08:15:58.477Z,27.46
2018-09-17T08:16:39.289Z,27.5
2018-09-17T08:17:20.083Z,27.54
2018-09-17T08:18:00.902Z,27.55
2018-09-17T08:18:41.629Z,27.55
2018-09-17T08:19:22.460Z,27.51
2018-09-17T08:20:03.262Z,27.47
2018-09-17T08:20:43.982Z,27.44
2018-09-17T08:21:24.737Z,27.5
2018-09-17T08:22:05.547Z,27.55
2018-09-17T08:22:46.364Z,27.51
2018-09-17T08:23:27.220Z,27.47
2018-09-17T08:24:08.046Z,27.47
2018-09-17T08:24:48.827Z,27.46
2018-09-17T08:25:29.643Z,27.49
2018-09-17T08:26:10.339Z,27.43
2018-09-17T08:26:51.106Z,27.43
2018-09-17T08:27:31.928Z,27.43
2018-09-17T08:28:12.637Z,27.39
2018-09-17T08:28:53.392Z,27.43
2018-09-17T08:29:34.208Z,27.44
2018-09-17T08:30:15.027Z,27.37
2018-09-17T08:30:55.902Z,27.47
2018-09-17T08:31:36.582Z,27.4
2018-09-17T08:32:17.291Z,27.43
2018-09-17T08:32:58.035Z,27.47
2018-09-17T08:33:38.867Z,27.47
2018-09-17T08:34:19.698Z,27.43
2018-09-17T08:35:00.510Z,27.46
2018-09-17T08:35:41.277Z,27.39
2018-09-17T08:36:22.031Z,27.39
2018-09-17T08:37:02.848Z,27.47
2018-09-17T08:37:43.621Z,27.47
2018-09-17T08:38:24.385Z,27.39
2018-09-17T08:39:05.152Z,27.46
2018-09-17T08:39:45.920Z,27.55
2018-09-17T08:40:26.711Z,27.6
2018-09-17T08:41:07.573Z,27.47
2018-09-17T08:41:48.343Z,27.51
2018-09-17T08:42:29.055Z,27.57
2018-09-17T08:43:09.840Z,27.5
2018-09-17T08:43:50.581Z,27.5
2018-09-17T08:44:31.534Z,27.49
2018-09-17T08:45:12.186Z,27.54
2018-09-17T08:45:52.933Z,27.49
2018-09-17T08:46:33.732Z,27.49
2018-09-17T08:47:14.522Z,27.55